Hewlett Bay Park, New York
Current Conditions -  °F | °C
As of 11:51 PM on Monday 26 Jan 2015 (Local Time) from KJFK Reporting Station
Light Snow Light Snow  
Wind Chill: 11°   Ceiling: 700
Heat Index: 26°   Visibility: 0.75mi
Dew Point: 21°   Wind: 23mph
Humidity: 81%   Direction: 10°N
Pressure: 29.67"   Gusts: 33mph
Location:  40.637°N, 73.6912°W
Report Text: KJFK 270451Z 01020G29KT 3/4SM R04R/4000VP6000FT -SN BLSN VV007 M03/M06 A2967 RMK AO2 PK WND 02031/0359 TWR VIS 1 SLP045 P0002 T10331061 400001044 $
Loading
Personal Weather Stations






























Interactive Weather Map New forecast layout! Learn more

10-Day Weather Forecast

Advertisements
Track Severe Weather on mobile